sensor_id;sensor_type;location;lat;lon;timestamp;pressure;altitude;pressure_sealevel;temperature;humidity
78615;BME280;67937;52.488;20.952;2023-11-18T00:02:05;100810.88;;;0.79;89.76
78615;BME280;67937;52.488;20.952;2023-11-18T00:04:34;100811.92;;;0.79;89.91
78615;BME280;67937;52.488;20.952;2023-11-18T00:07:02;100810.55;;;0.78;89.89
78615;BME280;67937;52.488;20.952;2023-11-18T00:09:30;100816.63;;;0.79;89.87
78615;BME280;67937;52.488;20.952;2023-11-18T00:11:58;100816.30;;;0.78;89.87
78615;BME280;67937;52.488;20.952;2023-11-18T00:14:26;100820.64;;;0.79;89.91
78615;BME280;67937;52.488;20.952;2023-11-18T00:16:54;100822.89;;;0.79;89.91
78615;BME280;67937;52.488;20.952;2023-11-18T00:19:22;100826.55;;;0.78;89.91
78615;BME280;67937;52.488;20.952;2023-11-18T00:21:50;100830.71;;;0.79;89.81
78615;BME280;67937;52.488;20.952;2023-11-18T00:24:18;100830.05;;;0.77;89.91
78615;BME280;67937;52.488;20.952;2023-11-18T00:26:46;100830.05;;;0.77;89.92
78615;BME280;67937;52.488;20.952;2023-11-18T00:29:13;100836.58;;;0.79;89.94
78615;BME280;67937;52.488;20.952;2023-11-18T00:31:41;100831.73;;;0.79;89.87
78615;BME280;67937;52.488;20.952;2023-11-18T00:34:09;100840.61;;;0.79;90.01
78615;BME280;67937;52.488;20.952;2023-11-18T00:36:37;100841.65;;;0.79;89.85
78615;BME280;67937;52.488;20.952;2023-11-18T00:39:05;100845.13;;;0.78;89.96
78615;BME280;67937;52.488;20.952;2023-11-18T00:41:33;100848.44;;;0.78;89.96
78615;BME280;67937;52.488;20.952;2023-11-18T00:44:01;100848.97;;;0.77;89.87
78615;BME280;67937;52.488;20.952;2023-11-18T00:46:29;100847.77;;;0.77;89.89
78615;BME280;67937;52.488;20.952;2023-11-18T00:48:57;100849.73;;;0.75;89.90
78615;BME280;67937;52.488;20.952;2023-11-18T00:51:25;100856.45;;;0.77;90.08
78615;BME280;67937;52.488;20.952;2023-11-18T00:53:54;100857.33;;;0.77;89.93
78615;BME280;67937;52.488;20.952;2023-11-18T00:56:22;100856.58;;;0.79;89.93
78615;BME280;67937;52.488;20.952;2023-11-18T00:58:50;100858.00;;;0.78;89.80
78615;BME280;67937;52.488;20.952;2023-11-18T01:01:18;100859.91;;;0.78;89.92
78615;BME280;67937;52.488;20.952;2023-11-18T01:03:48;100860.13;;;0.76;89.87
78615;BME280;67937;52.488;20.952;2023-11-18T01:06:15;100860.45;;;0.77;89.95
78615;BME280;67937;52.488;20.952;2023-11-18T01:08:44;100860.79;;;0.78;89.83
78615;BME280;67937;52.488;20.952;2023-11-18T01:11:16;100862.67;;;0.78;89.99
78615;BME280;67937;52.488;20.952;2023-11-18T01:13:46;100865.98;;;0.78;90.00
78615;BME280;67937;52.488;20.952;2023-11-18T01:16:14;100864.08;;;0.78;89.96
78615;BME280;67937;52.488;20.952;2023-11-18T01:18:42;100858.72;;;0.77;89.86
78615;BME280;67937;52.488;20.952;2023-11-18T01:21:11;100859.75;;;0.77;89.88
78615;BME280;67937;52.488;20.952;2023-11-18T01:23:39;100858.05;;;0.76;89.90
78615;BME280;67937;52.488;20.952;2023-11-18T01:26:11;100862.39;;;0.76;90.02
78615;BME280;67937;52.488;20.952;2023-11-18T01:28:40;100863.42;;;0.76;89.98
78615;BME280;67937;52.488;20.952;2023-11-18T01:31:09;100862.05;;;0.76;89.89
78615;BME280;67937;52.488;20.952;2023-11-18T01:33:38;100865.09;;;0.73;89.89
78615;BME280;67937;52.488;20.952;2023-11-18T01:36:08;100861.80;;;0.73;89.87
78615;BME280;67937;52.488;20.952;2023-11-18T01:38:37;100861.95;;;0.73;89.87
78615;BME280;67937;52.488;20.952;2023-11-18T01:41:05;100859.85;;;0.74;89.90
78615;BME280;67937;52.488;20.952;2023-11-18T01:43:34;100858.80;;;0.74;90.07
78615;BME280;67937;52.488;20.952;2023-11-18T01:46:03;100857.56;;;0.75;89.88
78615;BME280;67937;52.488;20.952;2023-11-18T01:48:33;100856.89;;;0.74;89.86
78615;BME280;67937;52.488;20.952;2023-11-18T01:51:04;100856.38;;;0.74;89.91
78615;BME280;67937;52.488;20.952;2023-11-18T01:53:37;100859.86;;;0.74;89.86
78615;BME280;67937;52.488;20.952;2023-11-18T01:56:06;100858.65;;;0.73;89.84
78615;BME280;67937;52.488;20.952;2023-11-18T01:58:35;100858.88;;;0.72;89.87
78615;BME280;67937;52.488;20.952;2023-11-18T02:01:03;100857.17;;;0.71;89.80
78615;BME280;67937;52.488;20.952;2023-11-18T02:03:34;100856.29;;;0.71;89.98
78615;BME280;67937;52.488;20.952;2023-11-18T02:06:05;100853.34;;;0.71;89.87
78615;BME280;67937;52.488;20.952;2023-11-18T02:08:37;100852.52;;;0.70;89.87
78615;BME280;67937;52.488;20.952;2023-11-18T02:11:20;100854.75;;;0.71;89.99
78615;BME280;67937;52.488;20.952;2023-11-18T02:13:53;100854.27;;;0.69;89.97
78615;BME280;67937;52.488;20.952;2023-11-18T02:16:22;100857.02;;;0.70;89.98
78615;BME280;67937;52.488;20.952;2023-11-18T02:18:51;100862.10;;;0.69;90.06
78615;BME280;67937;52.488;20.952;2023-11-18T02:21:20;100863.34;;;0.68;89.81
78615;BME280;67937;52.488;20.952;2023-11-18T02:23:50;100865.06;;;0.69;89.95
78615;BME280;67937;52.488;20.952;2023-11-18T02:26:24;100869.95;;;0.67;89.92
78615;BME280;67937;52.488;20.952;2023-11-18T02:28:52;100870.48;;;0.67;89.89
78615;BME280;67937;52.488;20.952;2023-11-18T02:31:28;100868.54;;;0.68;90.07
78615;BME280;67937;52.488;20.952;2023-11-18T02:36:31;100873.21;;;0.69;89.98
78615;BME280;67937;52.488;20.952;2023-11-18T02:39:10;100877.57;;;0.68;90.05
78615;BME280;67937;52.488;20.952;2023-11-18T02:41:43;100876.02;;;0.68;89.93
78615;BME280;67937;52.488;20.952;2023-11-18T02:44:14;100879.30;;;0.69;90.01
78615;BME280;67937;52.488;20.952;2023-11-18T02:46:44;100879.33;;;0.68;89.97
78615;BME280;67937;52.488;20.952;2023-11-18T02:49:12;100884.67;;;0.69;90.12
78615;BME280;67937;52.488;20.952;2023-11-18T02:51:39;100887.29;;;0.69;89.88
78615;BME280;67937;52.488;20.952;2023-11-18T02:54:08;100889.23;;;0.67;90.04
78615;BME280;67937;52.488;20.952;2023-11-18T02:56:37;100892.02;;;0.67;90.05
78615;BME280;67937;52.488;20.952;2023-11-18T02:59:05;100895.14;;;0.67;89.97
78615;BME280;67937;52.488;20.952;2023-11-18T03:01:33;100897.23;;;0.67;89.94
78615;BME280;67937;52.488;20.952;2023-11-18T03:04:01;100900.10;;;0.64;89.92
78615;BME280;67937;52.488;20.952;2023-11-18T03:06:31;100903.55;;;0.65;89.92
78615;BME280;67937;52.488;20.952;2023-11-18T03:09:00;100907.14;;;0.66;89.97
78615;BME280;67937;52.488;20.952;2023-11-18T03:11:28;100912.02;;;0.66;89.94
78615;BME280;67937;52.488;20.952;2023-11-18T03:13:57;100910.45;;;0.66;90.05
78615;BME280;67937;52.488;20.952;2023-11-18T03:16:25;100907.91;;;0.64;89.99
78615;BME280;67937;52.488;20.952;2023-11-18T03:18:53;100917.23;;;0.66;89.94
78615;BME280;67937;52.488;20.952;2023-11-18T03:21:21;100917.20;;;0.67;90.08
78615;BME280;67937;52.488;20.952;2023-11-18T03:23:49;100920.00;;;0.66;89.90
78615;BME280;67937;52.488;20.952;2023-11-18T03:26:17;100919.65;;;0.66;89.92
78615;BME280;67937;52.488;20.952;2023-11-18T03:28:45;100921.39;;;0.66;90.05
78615;BME280;67937;52.488;20.952;2023-11-18T03:31:13;100926.94;;;0.66;90.06
78615;BME280;67937;52.488;20.952;2023-11-18T03:33:42;100928.56;;;0.65;89.93
78615;BME280;67937;52.488;20.952;2023-11-18T03:36:10;100927.84;;;0.66;89.93
78615;BME280;67937;52.488;20.952;2023-11-18T03:38:39;100929.79;;;0.64;89.98
78615;BME280;67937;52.488;20.952;2023-11-18T03:41:07;100932.92;;;0.64;89.96
78615;BME280;67937;52.488;20.952;2023-11-18T03:43:36;100933.96;;;0.63;89.98
78615;BME280;67937;52.488;20.952;2023-11-18T03:46:04;100934.55;;;0.62;89.97
78615;BME280;67937;52.488;20.952;2023-11-18T03:48:33;100938.02;;;0.61;89.90
78615;BME280;67937;52.488;20.952;2023-11-18T03:51:01;100941.76;;;0.59;90.02
78615;BME280;67937;52.488;20.952;2023-11-18T03:53:30;100943.66;;;0.59;89.99
78615;BME280;67937;52.488;20.952;2023-11-18T03:56:00;100942.44;;;0.59;90.11
78615;BME280;67937;52.488;20.952;2023-11-18T03:58:28;100947.45;;;0.60;90.00
78615;BME280;67937;52.488;20.952;2023-11-18T04:00:59;100950.02;;;0.61;90.11
78615;BME280;67937;52.488;20.952;2023-11-18T04:03:28;100951.29;;;0.60;89.97
78615;BME280;67937;52.488;20.952;2023-11-18T04:05:55;100955.45;;;0.60;90.00
78615;BME280;67937;52.488;20.952;2023-11-18T04:08:23;100958.58;;;0.60;89.91
78615;BME280;67937;52.488;20.952;2023-11-18T04:10:52;100959.15;;;0.57;90.06
78615;BME280;67937;52.488;20.952;2023-11-18T04:13:20;100965.27;;;0.56;89.97
78615;BME280;67937;52.488;20.952;2023-11-18T04:15:48;100967.66;;;0.58;89.90
78615;BME280;67937;52.488;20.952;2023-11-18T04:18:16;100965.61;;;0.56;90.08
78615;BME280;67937;52.488;20.952;2023-11-18T04:20:44;100967.85;;;0.57;90.03
78615;BME280;67937;52.488;20.952;2023-11-18T04:23:11;100968.69;;;0.58;90.08
78615;BME280;67937;52.488;20.952;2023-11-18T04:25:41;100963.13;;;0.58;89.99
78615;BME280;67937;52.488;20.952;2023-11-18T04:28:08;100965.56;;;0.58;89.89
78615;BME280;67937;52.488;20.952;2023-11-18T04:30:37;100965.07;;;0.57;90.01
78615;BME280;67937;52.488;20.952;2023-11-18T04:33:05;100968.23;;;0.56;89.88
78615;BME280;67937;52.488;20.952;2023-11-18T04:35:32;100970.65;;;0.56;90.01
78615;BME280;67937;52.488;20.952;2023-11-18T04:38:01;100973.64;;;0.55;90.05
78615;BME280;67937;52.488;20.952;2023-11-18T04:40:29;100978.11;;;0.56;90.00
78615;BME280;67937;52.488;20.952;2023-11-18T04:42:57;100982.99;;;0.56;89.91
78615;BME280;67937;52.488;20.952;2023-11-18T04:45:27;100984.34;;;0.57;90.04
78615;BME280;67937;52.488;20.952;2023-11-18T04:47:54;100987.12;;;0.57;90.02
78615;BME280;67937;52.488;20.952;2023-11-18T04:50:22;100989.37;;;0.57;89.92
78615;BME280;67937;52.488;20.952;2023-11-18T04:52:50;100990.27;;;0.56;90.07
78615;BME280;67937;52.488;20.952;2023-11-18T04:55:18;100992.20;;;0.56;89.97
78615;BME280;67937;52.488;20.952;2023-11-18T04:57:46;100991.50;;;0.56;90.01
78615;BME280;67937;52.488;20.952;2023-11-18T05:00:14;100996.89;;;0.56;89.92
78615;BME280;67937;52.488;20.952;2023-11-18T05:02:45;100995.89;;;0.54;89.96
78615;BME280;67937;52.488;20.952;2023-11-18T05:05:15;100994.75;;;0.52;90.02
78615;BME280;67937;52.488;20.952;2023-11-18T05:07:43;100997.71;;;0.51;89.98
78615;BME280;67937;52.488;20.952;2023-11-18T05:10:11;101000.34;;;0.50;89.97
78615;BME280;67937;52.488;20.952;2023-11-18T05:12:39;100999.48;;;0.49;90.07
78615;BME280;67937;52.488;20.952;2023-11-18T05:15:10;101003.13;;;0.50;89.99
78615;BME280;67937;52.488;20.952;2023-11-18T05:17:39;101008.57;;;0.47;89.99
78615;BME280;67937;52.488;20.952;2023-11-18T05:20:07;101013.79;;;0.47;90.16
78615;BME280;67937;52.488;20.952;2023-11-18T05:22:35;101016.80;;;0.45;90.01
78615;BME280;67937;52.488;20.952;2023-11-18T05:25:04;101011.85;;;0.42;89.87
78615;BME280;67937;52.488;20.952;2023-11-18T05:27:32;101011.91;;;0.40;89.75
78615;BME280;67937;52.488;20.952;2023-11-18T05:29:59;101014.19;;;0.39;89.69
78615;BME280;67937;52.488;20.952;2023-11-18T05:32:28;101014.17;;;0.40;89.63
78615;BME280;67937;52.488;20.952;2023-11-18T05:34:57;101016.96;;;0.39;89.70
78615;BME280;67937;52.488;20.952;2023-11-18T05:37:25;101022.00;;;0.39;89.84
78615;BME280;67937;52.488;20.952;2023-11-18T05:39:54;101026.19;;;0.38;89.82
78615;BME280;67937;52.488;20.952;2023-11-18T05:42:33;101028.96;;;0.38;89.93
78615;BME280;67937;52.488;20.952;2023-11-18T05:45:03;101031.66;;;0.36;90.02
78615;BME280;67937;52.488;20.952;2023-11-18T05:47:33;101032.03;;;0.34;90.11
78615;BME280;67937;52.488;20.952;2023-11-18T05:50:02;101039.89;;;0.32;90.17
78615;BME280;67937;52.488;20.952;2023-11-18T05:52:31;101045.43;;;0.32;90.25
78615;BME280;67937;52.488;20.952;2023-11-18T05:55:00;101054.95;;;0.34;90.10
78615;BME280;67937;52.488;20.952;2023-11-18T05:57:29;101057.56;;;0.33;90.10
78615;BME280;67937;52.488;20.952;2023-11-18T05:59:56;101059.23;;;0.36;90.05
78615;BME280;67937;52.488;20.952;2023-11-18T06:02:24;101065.60;;;0.38;90.06
78615;BME280;67937;52.488;20.952;2023-11-18T06:04:52;101066.24;;;0.39;90.08
78615;BME280;67937;52.488;20.952;2023-11-18T06:07:21;101074.08;;;0.39;90.01
78615;BME280;67937;52.488;20.952;2023-11-18T06:09:49;101073.05;;;0.39;90.10
78615;BME280;67937;52.488;20.952;2023-11-18T06:12:17;101073.45;;;0.37;90.13
78615;BME280;67937;52.488;20.952;2023-11-18T06:14:45;101074.30;;;0.37;90.13
78615;BME280;67937;52.488;20.952;2023-11-18T06:17:13;101080.09;;;0.35;89.96
78615;BME280;67937;52.488;20.952;2023-11-18T06:19:41;101081.67;;;0.34;90.10
78615;BME280;67937;52.488;20.952;2023-11-18T06:22:09;101086.36;;;0.34;90.09
78615;BME280;67937;52.488;20.952;2023-11-18T06:24:37;101091.92;;;0.33;90.10
78615;BME280;67937;52.488;20.952;2023-11-18T06:27:05;101096.13;;;0.32;90.06
78615;BME280;67937;52.488;20.952;2023-11-18T06:29:35;101098.22;;;0.32;89.96
78615;BME280;67937;52.488;20.952;2023-11-18T06:32:03;101097.92;;;0.29;90.13
78615;BME280;67937;52.488;20.952;2023-11-18T06:34:32;101099.70;;;0.27;90.09
78615;BME280;67937;52.488;20.952;2023-11-18T06:37:00;101108.36;;;0.29;90.11
78615;BME280;67937;52.488;20.952;2023-11-18T06:39:28;101115.27;;;0.30;90.13
78615;BME280;67937;52.488;20.952;2023-11-18T06:41:56;101117.52;;;0.30;90.04
78615;BME280;67937;52.488;20.952;2023-11-18T06:44:24;101125.67;;;0.31;90.03
78615;BME280;67937;52.488;20.952;2023-11-18T06:46:52;101123.98;;;0.29;89.95
78615;BME280;67937;52.488;20.952;2023-11-18T06:49:20;101126.96;;;0.28;89.71
78615;BME280;67937;52.488;20.952;2023-11-18T06:51:48;101126.33;;;0.26;89.65
78615;BME280;67937;52.488;20.952;2023-11-18T06:54:17;101127.02;;;0.25;89.47
78615;BME280;67937;52.488;20.952;2023-11-18T06:56:45;101135.00;;;0.25;89.50
78615;BME280;67937;52.488;20.952;2023-11-18T06:59:13;101133.41;;;0.26;89.42
78615;BME280;67937;52.488;20.952;2023-11-18T07:01:41;101137.39;;;0.28;89.41
78615;BME280;67937;52.488;20.952;2023-11-18T07:04:10;101141.69;;;0.29;89.35
78615;BME280;67937;52.488;20.952;2023-11-18T07:06:38;101147.77;;;0.29;89.12
78615;BME280;67937;52.488;20.952;2023-11-18T07:09:07;101153.86;;;0.28;89.05
78615;BME280;67937;52.488;20.952;2023-11-18T07:11:40;101154.21;;;0.27;89.13
78615;BME280;67937;52.488;20.952;2023-11-18T07:14:11;101160.90;;;0.31;89.03
78615;BME280;67937;52.488;20.952;2023-11-18T07:16:40;101165.89;;;0.33;89.12
78615;BME280;67937;52.488;20.952;2023-11-18T07:19:08;101168.23;;;0.36;89.24
78615;BME280;67937;52.488;20.952;2023-11-18T07:21:36;101174.53;;;0.41;89.23
78615;BME280;67937;52.488;20.952;2023-11-18T07:24:05;101175.68;;;0.44;89.30
78615;BME280;67937;52.488;20.952;2023-11-18T07:26:33;101177.35;;;0.46;89.33
78615;BME280;67937;52.488;20.952;2023-11-18T07:29:01;101180.80;;;0.47;89.43
78615;BME280;67937;52.488;20.952;2023-11-18T07:31:29;101182.16;;;0.49;89.38
78615;BME280;67937;52.488;20.952;2023-11-18T07:33:57;101182.44;;;0.52;89.40
78615;BME280;67937;52.488;20.952;2023-11-18T07:36:25;101183.52;;;0.58;89.50
78615;BME280;67937;52.488;20.952;2023-11-18T07:38:53;101186.41;;;0.59;89.42
78615;BME280;67937;52.488;20.952;2023-11-18T07:41:21;101183.95;;;0.60;89.42
78615;BME280;67937;52.488;20.952;2023-11-18T07:43:51;101185.33;;;0.61;89.36
78615;BME280;67937;52.488;20.952;2023-11-18T07:46:21;101186.88;;;0.61;89.52
78615;BME280;67937;52.488;20.952;2023-11-18T07:48:50;101189.40;;;0.65;89.33
78615;BME280;67937;52.488;20.952;2023-11-18T07:51:20;101195.59;;;0.67;89.42
78615;BME280;67937;52.488;20.952;2023-11-18T07:53:48;101196.95;;;0.69;89.38
78615;BME280;67937;52.488;20.952;2023-11-18T07:56:17;101197.95;;;0.70;89.33
78615;BME280;67937;52.488;20.952;2023-11-18T07:58:45;101198.80;;;0.71;89.13
78615;BME280;67937;52.488;20.952;2023-11-18T08:01:13;101201.98;;;0.69;89.11
78615;BME280;67937;52.488;20.952;2023-11-18T08:03:42;101204.95;;;0.68;88.87
78615;BME280;67937;52.488;20.952;2023-11-18T08:06:11;101214.56;;;0.65;88.75
78615;BME280;67937;52.488;20.952;2023-11-18T08:08:39;101217.65;;;0.67;88.93
78615;BME280;67937;52.488;20.952;2023-11-18T08:11:10;101211.88;;;0.68;89.01
78615;BME280;67937;52.488;20.952;2023-11-18T08:13:38;101217.05;;;0.71;88.70
78615;BME280;67937;52.488;20.952;2023-11-18T08:16:06;101219.06;;;0.73;88.79
78615;BME280;67937;52.488;20.952;2023-11-18T08:18:35;101230.20;;;0.79;88.96
78615;BME280;67937;52.488;20.952;2023-11-18T08:21:03;101237.41;;;0.82;88.80
78615;BME280;67937;52.488;20.952;2023-11-18T08:23:33;101238.30;;;0.88;88.86
78615;BME280;67937;52.488;20.952;2023-11-18T08:26:02;101241.12;;;0.94;88.73
78615;BME280;67937;52.488;20.952;2023-11-18T08:28:32;101245.44;;;1.01;88.65
78615;BME280;67937;52.488;20.952;2023-11-18T08:31:00;101249.98;;;1.07;88.56
78615;BME280;67937;52.488;20.952;2023-11-18T08:33:28;101249.58;;;1.09;88.34
78615;BME280;67937;52.488;20.952;2023-11-18T08:35:56;101254.23;;;1.11;88.28
78615;BME280;67937;52.488;20.952;2023-11-18T08:38:24;101252.60;;;1.13;88.32
78615;BME280;67937;52.488;20.952;2023-11-18T08:40:52;101251.88;;;1.14;88.30
78615;BME280;67937;52.488;20.952;2023-11-18T08:43:21;101255.38;;;1.13;88.06
78615;BME280;67937;52.488;20.952;2023-11-18T08:45:49;101259.64;;;1.10;87.82
78615;BME280;67937;52.488;20.952;2023-11-18T08:48:17;101265.42;;;1.08;87.72
78615;BME280;67937;52.488;20.952;2023-11-18T08:50:45;101262.85;;;1.07;87.48
78615;BME280;67937;52.488;20.952;2023-11-18T08:53:14;101259.75;;;1.06;87.48
78615;BME280;67937;52.488;20.952;2023-11-18T08:55:44;101261.19;;;1.04;87.43
78615;BME280;67937;52.488;20.952;2023-11-18T08:58:17;101262.20;;;1.05;87.36
78615;BME280;67937;52.488;20.952;2023-11-18T09:00:50;101266.20;;;1.05;87.39
78615;BME280;67937;52.488;20.952;2023-11-18T09:03:24;101267.58;;;0.99;87.35
78615;BME280;67937;52.488;20.952;2023-11-18T09:05:58;101269.98;;;0.93;87.58
78615;BME280;67937;52.488;20.952;2023-11-18T09:08:34;101274.02;;;0.98;87.65
78615;BME280;67937;52.488;20.952;2023-11-18T09:11:07;101278.44;;;1.02;87.69
78615;BME280;67937;52.488;20.952;2023-11-18T09:13:37;101285.05;;;1.02;87.74
78615;BME280;67937;52.488;20.952;2023-11-18T09:16:06;101283.90;;;1.06;87.75
78615;BME280;67937;52.488;20.952;2023-11-18T09:18:37;101281.27;;;1.06;87.68
78615;BME280;67937;52.488;20.952;2023-11-18T09:21:06;101278.41;;;1.10;87.79
78615;BME280;67937;52.488;20.952;2023-11-18T09:23:43;101278.75;;;1.17;87.76
78615;BME280;67937;52.488;20.952;2023-11-18T09:26:14;101279.65;;;1.23;87.68
78615;BME280;67937;52.488;20.952;2023-11-18T09:28:43;101282.52;;;1.26;87.57
78615;BME280;67937;52.488;20.952;2023-11-18T09:31:12;101282.26;;;1.29;87.23
78615;BME280;67937;52.488;20.952;2023-11-18T09:33:41;101285.75;;;1.29;86.89
78615;BME280;67937;52.488;20.952;2023-11-18T09:36:13;101286.70;;;1.32;86.71
78615;BME280;67937;52.488;20.952;2023-11-18T09:38:43;101291.38;;;1.39;86.81
78615;BME280;67937;52.488;20.952;2023-11-18T09:41:13;101288.75;;;1.40;86.56
78615;BME280;67937;52.488;20.952;2023-11-18T09:43:43;101290.00;;;1.39;86.85
78615;BME280;67937;52.488;20.952;2023-11-18T09:46:29;101289.23;;;1.42;86.94
78615;BME280;67937;52.488;20.952;2023-11-18T09:49:03;101284.98;;;1.45;86.95
78615;BME280;67937;52.488;20.952;2023-11-18T09:51:45;101285.33;;;1.45;86.88
78615;BME280;67937;52.488;20.952;2023-11-18T09:54:22;101289.27;;;1.47;86.85
78615;BME280;67937;52.488;20.952;2023-11-18T09:57:08;101286.07;;;1.50;87.15
78615;BME280;67937;52.488;20.952;2023-11-18T10:00:03;101287.52;;;1.53;86.99
78615;BME280;67937;52.488;20.952;2023-11-18T10:02:50;101292.76;;;1.59;87.26
78615;BME280;67937;52.488;20.952;2023-11-18T10:05:22;101294.66;;;1.66;86.93
78615;BME280;67937;52.488;20.952;2023-11-18T10:07:53;101293.00;;;1.69;87.03
78615;BME280;67937;52.488;20.952;2023-11-18T10:10:24;101288.73;;;1.72;87.00
78615;BME280;67937;52.488;20.952;2023-11-18T10:12:57;101289.80;;;1.78;86.96
78615;BME280;67937;52.488;20.952;2023-11-18T10:15:26;101291.51;;;1.78;86.42
78615;BME280;67937;52.488;20.952;2023-11-18T10:17:57;101286.40;;;1.75;86.25
78615;BME280;67937;52.488;20.952;2023-11-18T10:20:43;101286.80;;;1.79;86.50
78615;BME280;67937;52.488;20.952;2023-11-18T10:23:14;101287.48;;;1.86;86.44
78615;BME280;67937;52.488;20.952;2023-11-18T10:31:01;101294.92;;;1.94;85.58
78615;BME280;67937;52.488;20.952;2023-11-18T10:33:37;101292.31;;;1.99;85.76
78615;BME280;67937;52.488;20.952;2023-11-18T10:36:20;101295.44;;;2.05;85.52
78615;BME280;67937;52.488;20.952;2023-11-18T10:38:51;101296.92;;;2.08;85.37
78615;BME280;67937;52.488;20.952;2023-11-18T10:41:22;101296.29;;;2.06;85.21
78615;BME280;67937;52.488;20.952;2023-11-18T10:44:05;101295.77;;;2.06;85.36
78615;BME280;67937;52.488;20.952;2023-11-18T10:46:33;101298.81;;;2.15;85.46
78615;BME280;67937;52.488;20.952;2023-11-18T10:49:01;101294.17;;;2.19;85.35
78615;BME280;67937;52.488;20.952;2023-11-18T10:51:36;101289.84;;;2.24;85.08
78615;BME280;67937;52.488;20.952;2023-11-18T10:54:05;101289.95;;;2.26;85.26
78615;BME280;67937;52.488;20.952;2023-11-18T10:56:46;101289.54;;;2.28;85.20
78615;BME280;67937;52.488;20.952;2023-11-18T10:59:15;101294.05;;;2.29;85.42
78615;BME280;67937;52.488;20.952;2023-11-18T11:01:43;101298.19;;;2.24;85.32
78615;BME280;67937;52.488;20.952;2023-11-18T11:04:15;101307.48;;;2.22;85.29
78615;BME280;67937;52.488;20.952;2023-11-18T11:06:48;101306.00;;;2.19;84.98
78615;BME280;67937;52.488;20.952;2023-11-18T11:09:20;101302.27;;;2.21;84.99
78615;BME280;67937;52.488;20.952;2023-11-18T11:11:54;101300.45;;;2.24;84.93
78615;BME280;67937;52.488;20.952;2023-11-18T11:14:26;101307.15;;;2.27;85.10
78615;BME280;67937;52.488;20.952;2023-11-18T11:17:06;101307.02;;;2.31;85.03
78615;BME280;67937;52.488;20.952;2023-11-18T11:19:46;101311.81;;;2.29;84.56
78615;BME280;67937;52.488;20.952;2023-11-18T11:22:24;101314.30;;;2.27;84.57
78615;BME280;67937;52.488;20.952;2023-11-18T11:25:12;101317.11;;;2.26;84.54
78615;BME280;67937;52.488;20.952;2023-11-18T11:28:00;101317.65;;;2.31;84.73
78615;BME280;67937;52.488;20.952;2023-11-18T11:30:46;101316.88;;;2.28;84.55
78615;BME280;67937;52.488;20.952;2023-11-18T11:35:56;101318.66;;;2.32;84.46
78615;BME280;67937;52.488;20.952;2023-11-18T11:38:25;101319.45;;;2.30;84.74
78615;BME280;67937;52.488;20.952;2023-11-18T11:40:55;101324.59;;;2.32;84.85
78615;BME280;67937;52.488;20.952;2023-11-18T11:43:27;101327.06;;;2.31;84.54
78615;BME280;67937;52.488;20.952;2023-11-18T11:45:57;101334.77;;;2.24;84.59
78615;BME280;67937;52.488;20.952;2023-11-18T11:48:26;101336.02;;;2.16;84.62
78615;BME280;67937;52.488;20.952;2023-11-18T11:51:18;101336.30;;;2.07;84.87
78615;BME280;67937;52.488;20.952;2023-11-18T11:53:53;101342.80;;;1.99;85.00
78615;BME280;67937;52.488;20.952;2023-11-18T11:56:38;101344.24;;;1.91;85.24
78615;BME280;67937;52.488;20.952;2023-11-18T11:59:06;101347.10;;;1.88;84.92
78615;BME280;67937;52.488;20.952;2023-11-18T12:01:38;101349.98;;;1.78;84.90
78615;BME280;67937;52.488;20.952;2023-11-18T12:04:09;101350.09;;;1.68;84.90
78615;BME280;67937;52.488;20.952;2023-11-18T12:06:48;101351.23;;;1.58;85.25
78615;BME280;67937;52.488;20.952;2023-11-18T12:09:19;101351.80;;;1.56;85.06
78615;BME280;67937;52.488;20.952;2023-11-18T12:11:48;101356.14;;;1.49;84.98
78615;BME280;67937;52.488;20.952;2023-11-18T12:14:17;101361.60;;;1.47;84.79
78615;BME280;67937;52.488;20.952;2023-11-18T12:17:05;101366.64;;;1.47;84.81
78615;BME280;67937;52.488;20.952;2023-11-18T12:19:37;101369.68;;;1.44;84.67
78615;BME280;67937;52.488;20.952;2023-11-18T12:22:19;101370.83;;;1.40;84.96
78615;BME280;67937;52.488;20.952;2023-11-18T12:33:05;101387.39;;;1.31;85.16
78615;BME280;67937;52.488;20.952;2023-11-18T12:41:37;101398.16;;;1.24;85.00
78615;BME280;67937;52.488;20.952;2023-11-18T12:46:55;101406.55;;;1.22;85.01
78615;BME280;67937;52.488;20.952;2023-11-18T12:49:38;101408.31;;;1.21;84.82
78615;BME280;67937;52.488;20.952;2023-11-18T12:52:10;101417.37;;;1.14;84.95
78615;BME280;67937;52.488;20.952;2023-11-18T12:54:41;101425.20;;;1.13;85.09
78615;BME280;67937;52.488;20.952;2023-11-18T12:57:10;101425.77;;;1.11;85.15
78615;BME280;67937;52.488;20.952;2023-11-18T12:59:41;101427.01;;;1.10;84.78
78615;BME280;67937;52.488;20.952;2023-11-18T13:02:10;101430.50;;;1.02;84.85
78615;BME280;67937;52.488;20.952;2023-11-18T13:04:48;101433.48;;;1.00;84.97
78615;BME280;67937;52.488;20.952;2023-11-18T13:07:16;101430.86;;;1.01;85.02
78615;BME280;67937;52.488;20.952;2023-11-18T13:09:45;101433.85;;;0.99;85.05
78615;BME280;67937;52.488;20.952;2023-11-18T13:12:14;101441.15;;;1.00;85.38
78615;BME280;67937;52.488;20.952;2023-11-18T13:14:44;101447.58;;;1.00;85.41
78615;BME280;67937;52.488;20.952;2023-11-18T13:17:13;101450.95;;;0.97;85.57
78615;BME280;67937;52.488;20.952;2023-11-18T13:19:43;101449.70;;;0.98;85.78
78615;BME280;67937;52.488;20.952;2023-11-18T13:22:13;101449.70;;;0.97;85.61
78615;BME280;67937;52.488;20.952;2023-11-18T13:24:42;101451.13;;;0.96;85.70
78615;BME280;67937;52.488;20.952;2023-11-18T13:27:14;101454.06;;;0.98;85.66
78615;BME280;67937;52.488;20.952;2023-11-18T13:29:47;101458.16;;;0.92;85.66
78615;BME280;67937;52.488;20.952;2023-11-18T13:32:17;101460.48;;;0.90;85.79
78615;BME280;67937;52.488;20.952;2023-11-18T13:34:49;101457.61;;;0.93;85.74